Time;durP1;ratioP1;P1;durP2;ratioP2;P2;SDS_P1;SDS_P2;PMS_P1;PMS_P2;Temp;Humidity;BMP_temperature;BMP_pressure;BME280_temperature;BME280_humidity;BME280_pressure;Samples;Min_cycle;Max_cycle;Signal;HPM_P1;HPM_P2
2023/01/02 00:00:30;;;;;;;;;;;;;;;;;;6224988;22;19929;-93
2023/01/02 00:02:56;;;;;;;;;;;;;;;;;;6225195;22;20014;-93
2023/01/02 00:05:22;;;;;;;;;;;;;;;;;;6225046;22;19968;-92
2023/01/02 00:07:47;;;;;;;;;;;;;;;;;;6224993;22;19915;-92
2023/01/02 00:10:13;;;;;;;;;;;;;;;;;;6225045;22;19961;-91
2023/01/02 00:12:39;;;;;;;;;;;;;;;;;;6224713;22;20302;-92
2023/01/02 00:15:05;;;;;;;;;;;;;;;;;;6225119;22;19950;-92
2023/01/02 00:17:31;;;;;;;;;;;;;;;;;;6225043;22;20244;-92
2023/01/02 00:19:57;;;;;;;;;;;;;;;;;;6250005;22;20260;-90
2023/01/02 00:22:23;;;;;;;;;;;;;;;;;;6250310;22;19915;-93
2023/01/02 00:24:49;;;;;;;;;;;;;;;;;;6225006;22;20531;-92
2023/01/02 00:27:15;;;;;;;;;;;;;;;;;;6224811;22;19961;-92
2023/01/02 00:29:41;;;;;;;;;;;;;;;;;;6224782;22;19923;-93
2023/01/02 00:32:07;;;;;;;;;;;;;;;;;;6224412;22;19974;-92
2023/01/02 00:34:33;;;;;;;;;;;;;;;;;;6224557;22;19915;-92
2023/01/02 00:36:58;;;;;;;;;;;;;;;;;;6225132;22;20317;-92
2023/01/02 00:39:24;;;;;;;;;;;;;;;;;;6224388;22;20253;-91
2023/01/02 00:41:50;;;;;;;;;;;;;;;;;;6224466;22;19921;-92
2023/01/02 00:44:16;;;;;;;;;;;;;;;;;;6224721;22;19921;-93
2023/01/02 00:46:42;;;;;;;;;;;;;;;;;;6224871;22;19921;-92
2023/01/02 00:49:08;;;;;;;;;;;;;;;;;;6224443;22;19923;-91
2023/01/02 00:51:34;;;;;;;;;;;;;;;;;;6224075;22;20303;-93
2023/01/02 00:54:00;;;;;;;;;;;;;;;;;;6222737;22;19945;-90
2023/01/02 00:56:26;;;;;;;;;;;;;;;;;;6247442;22;19922;-92
2023/01/02 00:58:52;;;;;;;;;;;;;;;;;;6223638;22;19923;-92
2023/01/02 01:01:17;;;;;;;;;;;;;;;;;;6223866;22;19986;-92
2023/01/02 01:03:43;;;;;;;;;;;;;;;;;;6222291;22;19915;-94
2023/01/02 01:06:09;;;;;;;;;;;;;;;;;;6223661;22;19919;-93
2023/01/02 01:08:35;;;;;;;;;;;;;;;;;;6223382;22;19923;-93
2023/01/02 01:11:01;;;;;;;;;;;;;;;;;;6223432;22;19915;-91
2023/01/02 01:13:27;;;;;;;;;;;;;;;;;;6222325;22;19930;-92
2023/01/02 01:15:53;;;;;;;;;;;;;;;;;;6223657;22;19922;-90
2023/01/02 01:18:19;;;;;;;;;;;;;;;;;;6222837;22;19915;-92
2023/01/02 01:20:45;;;;;;;;;;;;;;;;;;6221553;22;19938;-93
2023/01/02 01:23:11;;;;;;;;;;;;;;;;;;6224272;22;19922;-93
2023/01/02 01:25:36;;;;;;;;;;;;;;;;;;6223971;22;20341;-93
2023/01/02 01:28:02;;;;;;;;;;;;;;;;;;6224202;22;19922;-92
2023/01/02 01:30:28;;;;;;;;;;;;;;;;;;6248987;22;19925;-92
2023/01/02 01:32:54;;;;;;;;;;;;;;;;;;6223974;22;19919;-90
2023/01/02 01:35:20;;;;;;;;;;;;;;;;;;6224214;22;19919;-93
2023/01/02 01:37:46;;;;;;;;;;;;;;;;;;6224108;22;19922;-90
2023/01/02 01:40:12;;;;;;;;;;;;;;;;;;6248906;22;20390;-92
2023/01/02 01:42:38;;;;;;;;;;;;;;;;;;6224140;22;19945;-91
2023/01/02 01:45:04;;;;;;;;;;;;;;;;;;6249436;22;19964;-91
2023/01/02 01:47:29;;;;;;;;;;;;;;;;;;6224284;22;19958;-91
2023/01/02 01:49:55;;;;;;;;;;;;;;;;;;6223690;22;19994;-91
2023/01/02 01:52:21;;;;;;;;;;;;;;;;;;6223954;22;19919;-94
2023/01/02 01:54:47;;;;;;;;;;;;;;;;;;6224231;22;20355;-91
2023/01/02 01:57:13;;;;;;;;;;;;;;;;;;6224333;22;19916;-92
2023/01/02 01:59:39;;;;;;;;;;;;;;;;;;6223957;22;19919;-92
2023/01/02 02:02:05;;;;;;;;;;;;;;;;;;6224096;22;19919;-92
2023/01/02 02:04:31;;;;;;;;;;;;;;;;;;6224252;22;20014;-92
2023/01/02 02:06:57;;;;;;;;;;;;;;;;;;6224139;22;19916;-92
2023/01/02 02:09:22;;;;;;;;;;;;;;;;;;6224090;22;19915;-92
2023/01/02 02:11:48;;;;;;;;;;;;;;;;;;6224176;22;19919;-91
2023/01/02 02:14:14;;;;;;;;;;;;;;;;;;6224318;22;19917;-90
2023/01/02 02:16:40;;;;;;;;;;;;;;;;;;6224453;22;19921;-93
2023/01/02 02:19:06;;;;;;;;;;;;;;;;;;6224287;22;20528;-93
2023/01/02 02:21:32;;;;;;;;;;;;;;;;;;6226264;22;19915;-93
2023/01/02 02:23:58;;;;;;;;;;;;;;;;;;6226154;22;19921;-93
2023/01/02 02:26:24;;;;;;;;;;;;;;;;;;6226150;22;20332;-92
2023/01/02 02:28:50;;;;;;;;;;;;;;;;;;6226012;22;19942;-92
2023/01/02 02:31:16;;;;;;;;;;;;;;;;;;6246439;23;19922;-93
2023/01/02 02:33:41;;;;;;;;;;;;;;;;;;6221237;23;19923;-92
2023/01/02 02:36:07;;;;;;;;;;;;;;;;;;6246380;23;20238;-91
2023/01/02 02:38:33;;;;;;;;;;;;;;;;;;6246398;23;19915;-92
2023/01/02 02:40:59;;;;;;;;;;;;;;;;;;6220930;23;19919;-93
2023/01/02 02:43:25;;;;;;;;;;;;;;;;;;6221031;23;20372;-91
2023/01/02 02:45:51;;;;;;;;;;;;;;;;;;6221076;23;19954;-92
2023/01/02 02:48:17;;;;;;;;;;;;;;;;;;6220994;23;19959;-95
2023/01/02 02:50:43;;;;;;;;;;;;;;;;;;6220966;23;19947;-91
2023/01/02 02:53:09;;;;;;;;;;;;;;;;;;6220903;23;19927;-93
2023/01/02 02:55:35;;;;;;;;;;;;;;;;;;6221027;23;19923;-93
2023/01/02 02:58:01;;;;;;;;;;;;;;;;;;6220776;23;19915;-93
2023/01/02 03:00:27;;;;;;;;;;;;;;;;;;6245912;23;20257;-93
2023/01/02 03:02:52;;;;;;;;;;;;;;;;;;6220700;23;19919;-91
2023/01/02 03:05:18;;;;;;;;;;;;;;;;;;6220689;23;20325;-94
2023/01/02 03:07:44;;;;;;;;;;;;;;;;;;6220897;23;19916;-93
2023/01/02 03:10:10;;;;;;;;;;;;;;;;;;6245908;23;19919;-92
2023/01/02 03:12:36;;;;;;;;;;;;;;;;;;6220437;23;20337;-91
2023/01/02 03:15:02;;;;;;;;;;;;;;;;;;6220794;23;19915;-91
2023/01/02 03:17:28;;;;;;;;;;;;;;;;;;6220832;23;19943;-93
2023/01/02 03:19:54;;;;;;;;;;;;;;;;;;6220673;23;19947;-92
2023/01/02 03:22:20;;;;;;;;;;;;;;;;;;6220380;23;19950;-92
2023/01/02 03:24:46;;;;;;;;;;;;;;;;;;6245701;23;19990;-93
2023/01/02 03:27:12;;;;;;;;;;;;;;;;;;6220726;23;19916;-92
2023/01/02 03:29:37;;;;;;;;;;;;;;;;;;6245850;23;20261;-91
2023/01/02 03:32:03;;;;;;;;;;;;;;;;;;6245272;23;19919;-92
2023/01/02 03:34:29;;;;;;;;;;;;;;;;;;6220620;23;19923;-92
2023/01/02 03:36:55;;;;;;;;;;;;;;;;;;6220335;23;19915;-93
2023/01/02 03:39:21;;;;;;;;;;;;;;;;;;6220416;23;19916;-93
2023/01/02 03:41:47;;;;;;;;;;;;;;;;;;6220384;23;20338;-91
2023/01/02 03:44:13;;;;;;;;;;;;;;;;;;6220263;23;19923;-90
2023/01/02 03:46:39;;;;;;;;;;;;;;;;;;6246117;23;20246;-91
2023/01/02 03:49:05;;;;;;;;;;;;;;;;;;6220208;23;19916;-94
2023/01/02 03:51:30;;;;;;;;;;;;;;;;;;6220492;23;19915;-94
2023/01/02 03:53:56;;;;;;;;;;;;;;;;;;6220361;23;20325;-92
2023/01/02 03:56:22;;;;;;;;;;;;;;;;;;6219983;23;19962;-92
2023/01/02 03:58:48;;;;;;;;;;;;;;;;;;6219927;23;19916;-91
2023/01/02 04:01:14;;;;;;;;;;;;;;;;;;6219878;23;19923;-93
2023/01/02 04:03:40;;;;;;;;;;;;;;;;;;6245621;23;19919;-93
2023/01/02 04:06:06;;;;;;;;;;;;;;;;;;6219998;23;19938;-93
2023/01/02 04:08:32;;;;;;;;;;;;;;;;;;6245564;23;19916;-92
2023/01/02 04:10:58;;;;;;;;;;;;;;;;;;6219952;23;19916;-91
2023/01/02 04:13:24;;;;;;;;;;;;;;;;;;6245314;23;19919;-93
2023/01/02 04:15:50;;;;;;;;;;;;;;;;;;6220199;23;19921;-93
2023/01/02 04:18:16;;;;;;;;;;;;;;;;;;6220209;23;20261;-92
2023/01/02 04:20:42;;;;;;;;;;;;;;;;;;6219851;23;19916;-91
2023/01/02 04:23:07;;;;;;;;;;;;;;;;;;6219735;23;19916;-94
2023/01/02 04:25:33;;;;;;;;;;;;;;;;;;6219588;23;19916;-93
2023/01/02 04:27:59;;;;;;;;;;;;;;;;;;6219927;23;19916;-93
2023/01/02 04:30:25;;;;;;;;;;;;;;;;;;6222611;22;20329;-92
2023/01/02 04:32:51;;;;;;;;;;;;;;;;;;6225880;22;19919;-93
2023/01/02 04:35:17;;;;;;;;;;;;;;;;;;6251294;22;19938;-93
2023/01/02 04:37:43;;;;;;;;;;;;;;;;;;6225931;22;19915;-93
2023/01/02 04:40:09;;;;;;;;;;;;;;;;;;6225131;22;19915;-93
2023/01/02 04:42:35;;;;;;;;;;;;;;;;;;6224546;22;19915;-92
2023/01/02 04:45:01;;;;;;;;;;;;;;;;;;6224868;22;19916;-91
2023/01/02 04:47:27;;;;;;;;;;;;;;;;;;6224850;22;19922;-91
2023/01/02 04:49:52;;;;;;;;;;;;;;;;;;6224853;22;19984;-91
2023/01/02 04:52:18;;;;;;;;;;;;;;;;;;6224483;22;19924;-94
2023/01/02 04:54:44;;;;;;;;;;;;;;;;;;6224848;22;19961;-93
2023/01/02 04:57:10;;;;;;;;;;;;;;;;;;6224823;22;19919;-93
2023/01/02 04:59:36;;;;;;;;;;;;;;;;;;6224523;22;19954;-93
2023/01/02 05:02:02;;;;;;;;;;;;;;;;;;6249566;22;19994;-92
2023/01/02 05:04:28;;;;;;;;;;;;;;;;;;6224120;22;19985;-93
2023/01/02 05:06:54;;;;;;;;;;;;;;;;;;6224450;22;20320;-92
2023/01/02 05:09:20;;;;;;;;;;;;;;;;;;6224286;22;19990;-93
2023/01/02 05:11:45;;;;;;;;;;;;;;;;;;6224510;22;19994;-93
2023/01/02 05:14:11;;;;;;;;;;;;;;;;;;6224367;22;19991;-94
2023/01/02 05:16:37;;;;;;;;;;;;;;;;;;6224595;22;19953;-93
2023/01/02 05:19:03;;;;;;;;;;;;;;;;;;6223954;22;19916;-91
2023/01/02 05:24:14;;;;;;;;;;;;;;;;;;6249804;22;19923;-93
2023/01/02 05:26:40;;;;;;;;;;;;;;;;;;6224518;22;19919;-92
2023/01/02 05:29:06;;;;;;;;;;;;;;;;;;6224047;22;19916;-93
2023/01/02 05:31:32;;;;;;;;;;;;;;;;;;6219072;23;19916;-92
2023/01/02 05:33:57;;;;;;;;;;;;;;;;;;6219321;23;19935;-94
2023/01/02 05:36:23;;;;;;;;;;;;;;;;;;6219329;23;20289;-93
2023/01/02 05:38:49;;;;;;;;;;;;;;;;;;6219153;23;19915;-93
2023/01/02 05:41:15;;;;;;;;;;;;;;;;;;6218884;23;19920;-93
2023/01/02 05:43:41;;;;;;;;;;;;;;;;;;6219034;23;20337;-93
2023/01/02 05:46:07;;;;;;;;;;;;;;;;;;6219196;23;19990;-94
2023/01/02 05:48:33;;;;;;;;;;;;;;;;;;6218910;23;19998;-94
2023/01/02 05:50:59;;;;;;;;;;;;;;;;;;6219181;23;20336;-95
2023/01/02 05:53:25;;;;;;;;;;;;;;;;;;6217457;23;19919;-92
2023/01/02 05:55:50;;;;;;;;;;;;;;;;;;6219651;23;19915;-92
2023/01/02 05:58:16;;;;;;;;;;;;;;;;;;6244855;23;20326;-94
2023/01/02 06:00:42;;;;;;;;;;;;;;;;;;6220711;23;19916;-92
2023/01/02 06:03:08;;;;;;;;;;;;;;;;;;6221348;23;19916;-94
2023/01/02 06:05:34;;;;;;;;;;;;;;;;;;6221476;23;20107;-95
2023/01/02 06:08:00;;;;;;;;;;;;;;;;;;6221492;23;20256;-95
2023/01/02 06:10:26;;;;;;;;;;;;;;;;;;6221005;23;19954;-95
2023/01/02 06:12:52;;;;;;;;;;;;;;;;;;6221073;23;19998;-95
2023/01/02 06:15:18;;;;;;;;;;;;;;;;;;6220728;23;20384;-96
2023/01/02 06:17:44;;;;;;;;;;;;;;;;;;6220225;23;19973;-91
2023/01/02 06:20:10;;;;;;;;;;;;;;;;;;6245612;23;19996;-93
2023/01/02 06:22:36;;;;;;;;;;;;;;;;;;6220664;23;20238;-93
2023/01/02 06:25:01;;;;;;;;;;;;;;;;;;6221104;23;19957;-94
2023/01/02 06:27:27;;;;;;;;;;;;;;;;;;6220281;23;19927;-93
2023/01/02 06:29:53;;;;;;;;;;;;;;;;;;6246107;23;19962;-94
2023/01/02 06:32:19;;;;;;;;;;;;;;;;;;6220888;23;20330;-92
2023/01/02 06:34:45;;;;;;;;;;;;;;;;;;6221010;23;19923;-93
2023/01/02 06:37:11;;;;;;;;;;;;;;;;;;6220712;23;20154;-95
2023/01/02 06:39:37;;;;;;;;;;;;;;;;;;6220549;23;19922;-94
2023/01/02 06:42:03;;;;;;;;;;;;;;;;;;6220958;23;19923;-92
2023/01/02 06:44:29;;;;;;;;;;;;;;;;;;6220879;23;19920;-93
2023/01/02 06:46:54;;;;;;;;;;;;;;;;;;6220890;23;19966;-93
2023/01/02 06:49:20;;;;;;;;;;;;;;;;;;6220653;23;20366;-94
2023/01/02 06:51:46;;;;;;;;;;;;;;;;;;6221578;23;19915;-92
2023/01/02 06:54:12;;;;;;;;;;;;;;;;;;6217967;23;19915;-88
2023/01/02 06:56:38;;;;;;;;;;;;;;;;;;6224203;23;19923;-92
2023/01/02 06:59:05;;;;;;;;;;;;;;;;;;6220127;23;19937;-91
2023/01/02 07:01:31;;;;;;;;;;;;;;;;;;6223511;23;20258;-93
2023/01/02 07:04:00;;;;;;;;;;;;;;;;;;6222857;23;20257;-90
2023/01/02 07:06:26;;;;;;;;;;;;;;;;;;6222004;23;19923;-92
2023/01/02 07:08:52;;;;;;;;;;;;;;;;;;6222183;23;19954;-89
2023/01/02 07:11:18;;;;;;;;;;;;;;;;;;6222104;23;19915;-91
2023/01/02 07:13:44;;;;;;;;;;;;;;;;;;6222815;23;19930;-90
2023/01/02 07:16:10;;;;;;;;;;;;;;;;;;6220848;23;19919;-88
2023/01/02 07:18:36;;;;;;;;;;;;;;;;;;6220334;23;20393;-88
2023/01/02 07:21:02;;;;;;;;;;;;;;;;;;6220656;23;19962;-90
2023/01/02 07:23:28;;;;;;;;;;;;;;;;;;6220812;23;19919;-90
2023/01/02 07:25:54;;;;;;;;;;;;;;;;;;6221506;23;19920;-90
2023/01/02 07:28:20;;;;;;;;;;;;;;;;;;6220462;23;20223;-90
2023/01/02 07:30:46;;;;;;;;;;;;;;;;;;6222147;23;19926;-90
2023/01/02 07:33:11;;;;;;;;;;;;;;;;;;6250147;23;20326;-90
2023/01/02 07:35:37;;;;;;;;;;;;;;;;;;6222735;23;19915;-90
2023/01/02 07:38:05;;;;;;;;;;;;;;;;;;6222026;23;19919;-89
2023/01/02 07:40:31;;;;;;;;;;;;;;;;;;6221926;23;19922;-92
2023/01/02 07:42:57;;;;;;;;;;;;;;;;;;6220910;23;19915;-90
2023/01/02 07:45:23;;;;;;;;;;;;;;;;;;6220492;23;19923;-92
2023/01/02 07:47:49;;;;;;;;;;;;;;;;;;6221043;23;20488;-92
2023/01/02 07:50:15;;;;;;;;;;;;;;;;;;6221142;23;19931;-94
2023/01/02 07:52:41;;;;;;;;;;;;;;;;;;6221340;23;20222;-93
2023/01/02 07:55:07;;;;;;;;;;;;;;;;;;6221139;23;19916;-92
2023/01/02 07:57:33;;;;;;;;;;;;;;;;;;6221070;23;19916;-91
2023/01/02 07:59:58;;;;;;;;;;;;;;;;;;6220821;23;20230;-89
2023/01/02 08:02:24;;;;;;;;;;;;;;;;;;6218882;23;19919;-92
2023/01/02 08:04:50;;;;;;;;;;;;;;;;;;6220365;23;19919;-90
2023/01/02 08:07:16;;;;;;;;;;;;;;;;;;6220842;23;20326;-90
2023/01/02 08:09:42;;;;;;;;;;;;;;;;;;6220600;23;20313;-91
2023/01/02 08:12:08;;;;;;;;;;;;;;;;;;6220625;23;19955;-92
2023/01/02 08:14:34;;;;;;;;;;;;;;;;;;6220825;23;19989;-93
2023/01/02 08:17:00;;;;;;;;;;;;;;;;;;6220769;23;19920;-90
2023/01/02 08:19:26;;;;;;;;;;;;;;;;;;6220833;23;20413;-92
2023/01/02 08:21:52;;;;;;;;;;;;;;;;;;6246032;23;19916;-92
2023/01/02 08:24:18;;;;;;;;;;;;;;;;;;6246077;23;19915;-90
2023/01/02 08:26:44;;;;;;;;;;;;;;;;;;6220473;23;19923;-90
2023/01/02 08:29:10;;;;;;;;;;;;;;;;;;6245240;23;19916;-91
2023/01/02 08:31:36;;;;;;;;;;;;;;;;;;6245919;23;20395;-91
2023/01/02 08:34:02;;;;;;;;;;;;;;;;;;6245256;23;19915;-91
2023/01/02 08:36:28;;;;;;;;;;;;;;;;;;6220505;23;19951;-94
2023/01/02 08:38:54;;;;;;;;;;;;;;;;;;6220507;23;19966;-91
2023/01/02 08:41:20;;;;;;;;;;;;;;;;;;6220805;23;19951;-92
2023/01/02 08:43:46;;;;;;;;;;;;;;;;;;6245649;23;20036;-92
2023/01/02 08:46:11;;;;;;;;;;;;;;;;;;6245827;23;20329;-92
2023/01/02 08:48:37;;;;;;;;;;;;;;;;;;6219685;23;19969;-91
2023/01/02 08:51:03;;;;;;;;;;;;;;;;;;6220174;23;19916;-90
2023/01/02 08:53:29;;;;;;;;;;;;;;;;;;6245649;23;20254;-91
2023/01/02 08:55:55;;;;;;;;;;;;;;;;;;6220539;23;19915;-91
2023/01/02 08:58:21;;;;;;;;;;;;;;;;;;6220547;23;19966;-91
2023/01/02 09:00:47;;;;;;;;;;;;;;;;;;6220078;23;19993;-90
2023/01/02 09:03:13;;;;;;;;;;;;;;;;;;6220288;23;19986;-90
2023/01/02 09:05:39;;;;;;;;;;;;;;;;;;6220050;23;19916;-90
2023/01/02 09:11:01;;;;;;;;;;;;;;;;;;6245239;23;20235;-92
2023/01/02 09:13:26;;;;;;;;;;;;;;;;;;6245577;23;19934;-93
2023/01/02 09:15:52;;;;;;;;;;;;;;;;;;6220668;23;19915;-92
2023/01/02 09:18:18;;;;;;;;;;;;;;;;;;6245920;23;20337;-92
2023/01/02 09:20:44;;;;;;;;;;;;;;;;;;6220070;23;19916;-92
2023/01/02 09:23:10;;;;;;;;;;;;;;;;;;6220119;23;19919;-92
2023/01/02 09:25:36;;;;;;;;;;;;;;;;;;6219973;23;19916;-93
2023/01/02 09:28:02;;;;;;;;;;;;;;;;;;6219088;23;20292;-91
2023/01/02 09:30:28;;;;;;;;;;;;;;;;;;6221096;22;19926;-93
2023/01/02 09:32:54;;;;;;;;;;;;;;;;;;6248549;22;19919;-92
2023/01/02 09:35:20;;;;;;;;;;;;;;;;;;6223328;22;19915;-93
2023/01/02 09:37:46;;;;;;;;;;;;;;;;;;6224496;22;19923;-90
2023/01/02 09:40:13;;;;;;;;;;;;;;;;;;6223027;22;19922;-96
2023/01/02 09:42:39;;;;;;;;;;;;;;;;;;6223886;22;19969;-89
2023/01/02 09:45:05;;;;;;;;;;;;;;;;;;6223897;22;20295;-88
2023/01/02 09:47:31;;;;;;;;;;;;;;;;;;6223467;22;19923;-88
2023/01/02 09:49:57;;;;;;;;;;;;;;;;;;6248622;22;20341;-88
2023/01/02 09:52:23;;;;;;;;;;;;;;;;;;6223488;22;19920;-87
2023/01/02 09:54:49;;;;;;;;;;;;;;;;;;6223586;22;19965;-87
2023/01/02 09:57:15;;;;;;;;;;;;;;;;;;6223358;22;19919;-87
2023/01/02 09:59:41;;;;;;;;;;;;;;;;;;6222796;22;19923;-87
2023/01/02 10:02:07;;;;;;;;;;;;;;;;;;6223340;22;19915;-89
2023/01/02 10:07:27;;;;;;;;;;;;;;;;;;6249184;22;20252;-91
2023/01/02 10:09:53;;;;;;;;;;;;;;;;;;6223324;22;19919;-87
2023/01/02 10:12:19;;;;;;;;;;;;;;;;;;6223085;22;19923;-93
2023/01/02 10:14:45;;;;;;;;;;;;;;;;;;6249240;22;20395;-89
2023/01/02 10:17:11;;;;;;;;;;;;;;;;;;6248931;22;19985;-89
2023/01/02 10:19:37;;;;;;;;;;;;;;;;;;6223367;22;19922;-90
2023/01/02 10:22:03;;;;;;;;;;;;;;;;;;6223610;22;19915;-91
2023/01/02 10:24:29;;;;;;;;;;;;;;;;;;6223925;22;19915;-88
2023/01/02 10:26:55;;;;;;;;;;;;;;;;;;6223396;22;20330;-89
2023/01/02 10:29:20;;;;;;;;;;;;;;;;;;6223008;22;19919;-89
2023/01/02 10:31:46;;;;;;;;;;;;;;;;;;6244093;23;20624;-92
2023/01/02 10:34:12;;;;;;;;;;;;;;;;;;6218730;23;19961;-89
2023/01/02 10:36:38;;;;;;;;;;;;;;;;;;6218664;23;19991;-87
2023/01/02 10:39:04;;;;;;;;;;;;;;;;;;6217149;23;19919;-86
2023/01/02 10:41:30;;;;;;;;;;;;;;;;;;6218957;23;19977;-87
2023/01/02 10:43:56;;;;;;;;;;;;;;;;;;6219419;23;20512;-86
2023/01/02 10:46:22;;;;;;;;;;;;;;;;;;6245045;23;19916;-83
2023/01/02 10:48:48;;;;;;;;;;;;;;;;;;6220301;23;19957;-90
2023/01/02 10:51:14;;;;;;;;;;;;;;;;;;6245770;23;19916;-91
2023/01/02 10:53:40;;;;;;;;;;;;;;;;;;6220773;23;19927;-90
2023/01/02 10:56:06;;;;;;;;;;;;;;;;;;6220474;23;19916;-91
2023/01/02 10:58:32;;;;;;;;;;;;;;;;;;6220242;23;19916;-90
2023/01/02 11:00:58;;;;;;;;;;;;;;;;;;6220037;23;20396;-90
2023/01/02 11:03:24;;;;;;;;;;;;;;;;;;6220569;23;19998;-91
2023/01/02 11:05:50;;;;;;;;;;;;;;;;;;6220657;23;19931;-92
2023/01/02 11:08:16;;;;;;;;;;;;;;;;;;6220294;23;19915;-91
2023/01/02 11:10:42;;;;;;;;;;;;;;;;;;6220184;23;19983;-93
2023/01/02 11:13:08;;;;;;;;;;;;;;;;;;6219863;23;19923;-96
2023/01/02 11:15:34;;;;;;;;;;;;;;;;;;6215236;23;19969;-90
2023/01/02 11:18:00;;;;;;;;;;;;;;;;;;6216949;23;20353;-96
2023/01/02 11:20:27;;;;;;;;;;;;;;;;;;6216946;23;20388;-91
2023/01/02 11:22:53;;;;;;;;;;;;;;;;;;6216269;23;19922;-95
2023/01/02 11:25:19;;;;;;;;;;;;;;;;;;6217265;23;19951;-96
2023/01/02 11:27:45;;;;;;;;;;;;;;;;;;6216190;23;19915;-96
2023/01/02 11:30:11;;;;;;;;;;;;;;;;;;6215205;23;19919;-96
2023/01/02 11:32:37;;;;;;;;;;;;;;;;;;6216036;23;19923;-90
2023/01/02 11:35:05;;;;;;;;;;;;;;;;;;6218544;23;19916;-93
2023/01/02 11:37:32;;;;;;;;;;;;;;;;;;6231287;23;19930;-92
2023/01/02 11:40:01;;;;;;;;;;;;;;;;;;6216500;23;20430;-94
2023/01/02 11:45:12;;;;;;;;;;;;;;;;;;6241475;23;19915;-95
2023/01/02 11:47:41;;;;;;;;;;;;;;;;;;6215969;23;19916;-95
2023/01/02 11:50:07;;;;;;;;;;;;;;;;;;6215595;23;19919;-95
2023/01/02 11:52:33;;;;;;;;;;;;;;;;;;6239440;23;19927;-95
2023/01/02 11:54:59;;;;;;;;;;;;;;;;;;6218523;23;19916;-95
2023/01/02 11:57:25;;;;;;;;;;;;;;;;;;6220503;23;19920;-95
2023/01/02 11:59:50;;;;;;;;;;;;;;;;;;6220057;23;19920;-94
2023/01/02 12:02:16;;;;;;;;;;;;;;;;;;6220434;23;19915;-96
2023/01/02 12:04:42;;;;;;;;;;;;;;;;;;6221000;23;19923;-93
2023/01/02 12:07:08;;;;;;;;;;;;;;;;;;6218195;23;19923;-93
2023/01/02 12:09:34;;;;;;;;;;;;;;;;;;6219494;23;20010;-91
2023/01/02 12:12:00;;;;;;;;;;;;;;;;;;6222217;23;20004;-92
2023/01/02 12:17:11;;;;;;;;;;;;;;;;;;6245407;23;19922;-92
2023/01/02 12:19:37;;;;;;;;;;;;;;;;;;6219520;23;19919;-92
2023/01/02 12:22:03;;;;;;;;;;;;;;;;;;6219866;23;19920;-90
2023/01/02 12:24:29;;;;;;;;;;;;;;;;;;6220197;23;20308;-94
2023/01/02 12:26:55;;;;;;;;;;;;;;;;;;6220278;23;19916;-93
2023/01/02 12:29:21;;;;;;;;;;;;;;;;;;6219489;23;19919;-94
2023/01/02 12:31:57;;;;;;;;;;;;;;;;;;6219994;23;19915;-93
2023/01/02 12:34:23;;;;;;;;;;;;;;;;;;6220349;23;19965;-96
2023/01/02 12:36:52;;;;;;;;;;;;;;;;;;6252688;23;19982;-96
2023/01/02 12:39:18;;;;;;;;;;;;;;;;;;6220349;23;19919;-95
2023/01/02 12:41:46;;;;;;;;;;;;;;;;;;6219948;23;20185;-93
2023/01/02 12:44:11;;;;;;;;;;;;;;;;;;6225206;23;19919;-89
2023/01/02 12:46:43;;;;;;;;;;;;;;;;;;6219476;23;19915;-90
2023/01/02 12:49:08;;;;;;;;;;;;;;;;;;6218653;23;19994;-91
2023/01/02 12:51:34;;;;;;;;;;;;;;;;;;6219409;23;19962;-92
2023/01/02 12:54:00;;;;;;;;;;;;;;;;;;6246406;23;19930;-89
2023/01/02 12:56:26;;;;;;;;;;;;;;;;;;6219668;23;19916;-92
2023/01/02 12:58:56;;;;;;;;;;;;;;;;;;6219010;23;19916;-91
2023/01/02 13:01:22;;;;;;;;;;;;;;;;;;6219499;23;19916;-92
2023/01/02 13:03:48;;;;;;;;;;;;;;;;;;6219260;23;19995;-91
2023/01/02 13:06:14;;;;;;;;;;;;;;;;;;6219403;23;19930;-91
2023/01/02 13:08:40;;;;;;;;;;;;;;;;;;6219825;23;19954;-91
2023/01/02 13:11:06;;;;;;;;;;;;;;;;;;6219367;23;19954;-92
2023/01/02 13:13:32;;;;;;;;;;;;;;;;;;6219426;23;19927;-91
2023/01/02 13:15:58;;;;;;;;;;;;;;;;;;6219279;23;20284;-91
2023/01/02 13:18:24;;;;;;;;;;;;;;;;;;6219385;23;19915;-90
2023/01/02 13:20:49;;;;;;;;;;;;;;;;;;6219173;23;19915;-90
2023/01/02 13:23:15;;;;;;;;;;;;;;;;;;6219229;23;19919;-90
2023/01/02 13:25:41;;;;;;;;;;;;;;;;;;6219348;23;20380;-91
2023/01/02 13:28:07;;;;;;;;;;;;;;;;;;6218734;23;19950;-91
2023/01/02 13:30:33;;;;;;;;;;;;;;;;;;6222059;22;19915;-93
2023/01/02 13:32:59;;;;;;;;;;;;;;;;;;6223919;22;19923;-91
2023/01/02 13:35:28;;;;;;;;;;;;;;;;;;6222022;22;19916;-89
2023/01/02 13:37:54;;;;;;;;;;;;;;;;;;6224137;22;20348;-90
2023/01/02 13:40:20;;;;;;;;;;;;;;;;;;6223525;22;19915;-88
2023/01/02 13:42:58;;;;;;;;;;;;;;;;;;6249303;22;20295;-91
2023/01/02 13:45:24;;;;;;;;;;;;;;;;;;6223349;22;19919;-91
2023/01/02 13:47:50;;;;;;;;;;;;;;;;;;6224301;22;19922;-91
2023/01/02 13:50:16;;;;;;;;;;;;;;;;;;6223354;22;19922;-91
2023/01/02 13:52:42;;;;;;;;;;;;;;;;;;6223949;22;20333;-92
2023/01/02 13:55:08;;;;;;;;;;;;;;;;;;6224032;22;19915;-91
2023/01/02 13:57:34;;;;;;;;;;;;;;;;;;6249391;22;19921;-91
2023/01/02 14:00:01;;;;;;;;;;;;;;;;;;6219394;22;20332;-94
2023/01/02 14:02:35;;;;;;;;;;;;;;;;;;6223024;22;19931;-94
2023/01/02 14:05:01;;;;;;;;;;;;;;;;;;6224001;22;19919;-92
2023/01/02 14:07:28;;;;;;;;;;;;;;;;;;6224682;22;19923;-93
2023/01/02 14:09:54;;;;;;;;;;;;;;;;;;6224414;22;19915;-93
2023/01/02 14:12:20;;;;;;;;;;;;;;;;;;6227509;22;20269;-96
2023/01/02 14:14:52;;;;;;;;;;;;;;;;;;6226016;22;19915;-93
2023/01/02 14:17:18;;;;;;;;;;;;;;;;;;6226566;22;19919;-92
2023/01/02 14:19:44;;;;;;;;;;;;;;;;;;6226018;22;19916;-93
2023/01/02 14:22:10;;;;;;;;;;;;;;;;;;6225831;22;19916;-92
2023/01/02 14:24:35;;;;;;;;;;;;;;;;;;6226242;22;19986;-90
2023/01/02 14:27:04;;;;;;;;;;;;;;;;;;6226023;22;20356;-91
2023/01/02 14:29:29;;;;;;;;;;;;;;;;;;6225673;22;19915;-93
2023/01/02 14:31:55;;;;;;;;;;;;;;;;;;6219856;23;19987;-90
2023/01/02 14:34:21;;;;;;;;;;;;;;;;;;6221162;23;19959;-90
2023/01/02 14:36:47;;;;;;;;;;;;;;;;;;6220854;23;19954;-91
2023/01/02 14:39:15;;;;;;;;;;;;;;;;;;6220159;23;19951;-92
2023/01/02 14:44:26;;;;;;;;;;;;;;;;;;6246847;23;19915;-96
2023/01/02 14:46:55;;;;;;;;;;;;;;;;;;6255279;23;19969;-88
2023/01/02 14:51:57;;;;;;;;;;;;;;;;;;6264642;22;19923;-95
2023/01/02 14:56:59;;;;;;;;;;;;;;;;;;6278526;22;20085;-96
2023/01/02 14:59:25;;;;;;;;;;;;;;;;;;6263422;22;19915;-89
2023/01/02 15:01:54;;;;;;;;;;;;;;;;;;6269469;22;19942;-94
2023/01/02 15:06:56;;;;;;;;;;;;;;;;;;6311523;22;19919;-89
2023/01/02 15:09:25;;;;;;;;;;;;;;;;;;6265599;22;19907;-90
2023/01/02 15:14:35;;;;;;;;;;;;;;;;;;6282312;22;19922;-92
2023/01/02 15:17:02;;;;;;;;;;;;;;;;;;6256348;22;19922;-88
2023/01/02 15:19:28;;;;;;;;;;;;;;;;;;6254484;22;19915;-89
2023/01/02 15:21:55;;;;;;;;;;;;;;;;;;6254192;22;19919;-93
2023/01/02 15:24:21;;;;;;;;;;;;;;;;;;6281154;22;20290;-87
2023/01/02 15:26:47;;;;;;;;;;;;;;;;;;6280323;22;19957;-90
2023/01/02 15:29:13;;;;;;;;;;;;;;;;;;6278396;22;19934;-89
2023/01/02 15:31:39;;;;;;;;;;;;;;;;;;6280647;22;20600;-89
2023/01/02 15:34:05;;;;;;;;;;;;;;;;;;6280686;22;20329;-89
2023/01/02 15:36:44;;;;;;;;;;;;;;;;;;6255204;22;19915;-89
2023/01/02 15:39:10;;;;;;;;;;;;;;;;;;6254621;22;19919;-89
2023/01/02 15:41:36;;;;;;;;;;;;;;;;;;6255038;22;19949;-90
2023/01/02 15:46:47;;;;;;;;;;;;;;;;;;6280401;22;19984;-90
2023/01/02 15:49:13;;;;;;;;;;;;;;;;;;6254303;22;19973;-89
2023/01/02 15:51:39;;;;;;;;;;;;;;;;;;6254120;22;19915;-95
2023/01/02 15:54:05;;;;;;;;;;;;;;;;;;6255127;22;19918;-93
2023/01/02 15:56:31;;;;;;;;;;;;;;;;;;6254588;22;20325;-91
2023/01/02 15:58:57;;;;;;;;;;;;;;;;;;6279000;22;19942;-92
2023/01/02 16:01:23;;;;;;;;;;;;;;;;;;6255237;22;19930;-93
2023/01/02 16:03:49;;;;;;;;;;;;;;;;;;6281273;22;19915;-92
2023/01/02 16:06:15;;;;;;;;;;;;;;;;;;6281142;22;19953;-91
2023/01/02 16:08:41;;;;;;;;;;;;;;;;;;6255509;22;20010;-94
2023/01/02 16:11:07;;;;;;;;;;;;;;;;;;6255296;22;20261;-93
2023/01/02 16:16:18;;;;;;;;;;;;;;;;;;6281322;22;19922;-93
2023/01/02 16:18:43;;;;;;;;;;;;;;;;;;6280974;22;20337;-91
2023/01/02 16:21:09;;;;;;;;;;;;;;;;;;6254937;22;19918;-91
2023/01/02 16:23:35;;;;;;;;;;;;;;;;;;6281279;22;19965;-93
2023/01/02 16:26:03;;;;;;;;;;;;;;;;;;6255617;22;19922;-93
2023/01/02 16:28:29;;;;;;;;;;;;;;;;;;6255503;22;19925;-93
2023/01/02 16:30:55;;;;;;;;;;;;;;;;;;6255057;22;20308;-93
2023/01/02 16:33:21;;;;;;;;;;;;;;;;;;6255326;22;19966;-93
2023/01/02 16:35:47;;;;;;;;;;;;;;;;;;6255448;22;19922;-92
2023/01/02 16:38:13;;;;;;;;;;;;;;;;;;6255092;22;19919;-93
2023/01/02 16:40:43;;;;;;;;;;;;;;;;;;6254948;22;20333;-93
2023/01/02 16:43:08;;;;;;;;;;;;;;;;;;6280934;22;19915;-92
2023/01/02 16:45:34;;;;;;;;;;;;;;;;;;6255395;22;20512;-92
2023/01/02 16:48:00;;;;;;;;;;;;;;;;;;6255417;22;19942;-94
2023/01/02 16:50:27;;;;;;;;;;;;;;;;;;6254818;22;19946;-93
2023/01/02 16:53:00;;;;;;;;;;;;;;;;;;6254070;22;19927;-92
2023/01/02 16:55:26;;;;;;;;;;;;;;;;;;6255321;22;19915;-92
2023/01/02 16:57:52;;;;;;;;;;;;;;;;;;6254527;22;20002;-93
2023/01/02 17:00:18;;;;;;;;;;;;;;;;;;6254937;22;19922;-92
2023/01/02 17:02:43;;;;;;;;;;;;;;;;;;6280540;22;19925;-92
2023/01/02 17:05:09;;;;;;;;;;;;;;;;;;6254725;22;19915;-92
2023/01/02 17:07:35;;;;;;;;;;;;;;;;;;6255287;22;19915;-91
2023/01/02 17:10:01;;;;;;;;;;;;;;;;;;6254081;22;20597;-92